sensor_id;sensor_type;location;lat;lon;timestamp;P1;durP1;ratioP1;P2;durP2;ratioP2
66179;SDS011;52986;44.028;20.466;2023-05-07T00:01:47;11.80;;;5.22;;
66179;SDS011;52986;44.028;20.466;2023-05-07T00:04:12;11.95;;;5.53;;
66179;SDS011;52986;44.028;20.466;2023-05-07T00:06:38;10.90;;;4.68;;
66179;SDS011;52986;44.028;20.466;2023-05-07T00:09:04;12.75;;;4.90;;
66179;SDS011;52986;44.028;20.466;2023-05-07T00:11:30;12.00;;;4.85;;
66179;SDS011;52986;44.028;20.466;2023-05-07T00:13:56;11.82;;;5.30;;
66179;SDS011;52986;44.028;20.466;2023-05-07T00:16:21;10.68;;;4.75;;
66179;SDS011;52986;44.028;20.466;2023-05-07T00:18:47;11.15;;;4.78;;
66179;SDS011;52986;44.028;20.466;2023-05-07T00:21:12;10.95;;;4.53;;
66179;SDS011;52986;44.028;20.466;2023-05-07T00:23:38;11.50;;;4.53;;
66179;SDS011;52986;44.028;20.466;2023-05-07T00:26:03;11.15;;;4.90;;
66179;SDS011;52986;44.028;20.466;2023-05-07T00:28:29;11.98;;;5.30;;
66179;SDS011;52986;44.028;20.466;2023-05-07T00:30:54;10.68;;;5.15;;
66179;SDS011;52986;44.028;20.466;2023-05-07T00:33:20;10.32;;;4.93;;
66179;SDS011;52986;44.028;20.466;2023-05-07T00:35:47;12.23;;;5.28;;
66179;SDS011;52986;44.028;20.466;2023-05-07T00:38:13;11.77;;;4.72;;
66179;SDS011;52986;44.028;20.466;2023-05-07T00:40:38;10.35;;;4.47;;
66179;SDS011;52986;44.028;20.466;2023-05-07T00:43:04;10.88;;;5.30;;
66179;SDS011;52986;44.028;20.466;2023-05-07T00:45:29;11.63;;;4.82;;
66179;SDS011;52986;44.028;20.466;2023-05-07T00:47:55;11.90;;;5.38;;
66179;SDS011;52986;44.028;20.466;2023-05-07T00:50:22;11.30;;;4.90;;
66179;SDS011;52986;44.028;20.466;2023-05-07T00:52:48;10.60;;;4.60;;
66179;SDS011;52986;44.028;20.466;2023-05-07T00:55:13;11.60;;;4.93;;
66179;SDS011;52986;44.028;20.466;2023-05-07T00:57:40;10.23;;;4.70;;
66179;SDS011;52986;44.028;20.466;2023-05-07T01:00:07;11.63;;;4.80;;
66179;SDS011;52986;44.028;20.466;2023-05-07T01:02:34;10.98;;;4.72;;
66179;SDS011;52986;44.028;20.466;2023-05-07T01:05:00;11.25;;;5.00;;
66179;SDS011;52986;44.028;20.466;2023-05-07T01:07:28;11.70;;;4.75;;
66179;SDS011;52986;44.028;20.466;2023-05-07T01:09:55;10.70;;;4.65;;
66179;SDS011;52986;44.028;20.466;2023-05-07T01:12:21;10.63;;;4.90;;
66179;SDS011;52986;44.028;20.466;2023-05-07T01:14:47;11.48;;;4.93;;
66179;SDS011;52986;44.028;20.466;2023-05-07T01:17:14;11.48;;;5.05;;
66179;SDS011;52986;44.028;20.466;2023-05-07T01:19:40;10.93;;;4.80;;
66179;SDS011;52986;44.028;20.466;2023-05-07T01:22:09;10.98;;;4.47;;
66179;SDS011;52986;44.028;20.466;2023-05-07T01:24:39;9.85;;;4.55;;
66179;SDS011;52986;44.028;20.466;2023-05-07T01:27:05;12.57;;;4.88;;
66179;SDS011;52986;44.028;20.466;2023-05-07T01:29:31;10.07;;;4.68;;
66179;SDS011;52986;44.028;20.466;2023-05-07T01:31:57;11.18;;;5.10;;
66179;SDS011;52986;44.028;20.466;2023-05-07T01:34:24;10.82;;;4.60;;
66179;SDS011;52986;44.028;20.466;2023-05-07T01:36:51;9.20;;;4.15;;
66179;SDS011;52986;44.028;20.466;2023-05-07T01:39:18;11.38;;;4.90;;
66179;SDS011;52986;44.028;20.466;2023-05-07T01:41:44;11.20;;;4.95;;
66179;SDS011;52986;44.028;20.466;2023-05-07T01:44:10;12.45;;;5.15;;
66179;SDS011;52986;44.028;20.466;2023-05-07T01:46:38;10.40;;;4.35;;
66179;SDS011;52986;44.028;20.466;2023-05-07T01:49:03;10.05;;;4.78;;
66179;SDS011;52986;44.028;20.466;2023-05-07T01:51:29;9.73;;;4.10;;
66179;SDS011;52986;44.028;20.466;2023-05-07T01:53:55;11.35;;;4.63;;
66179;SDS011;52986;44.028;20.466;2023-05-07T01:56:21;10.95;;;4.75;;
66179;SDS011;52986;44.028;20.466;2023-05-07T01:58:46;11.18;;;4.85;;
66179;SDS011;52986;44.028;20.466;2023-05-07T02:01:12;12.38;;;4.90;;
66179;SDS011;52986;44.028;20.466;2023-05-07T02:03:38;11.63;;;5.22;;
66179;SDS011;52986;44.028;20.466;2023-05-07T02:06:04;10.57;;;4.78;;
66179;SDS011;52986;44.028;20.466;2023-05-07T02:08:29;9.98;;;4.15;;
66179;SDS011;52986;44.028;20.466;2023-05-07T02:10:55;10.80;;;4.57;;
66179;SDS011;52986;44.028;20.466;2023-05-07T02:13:20;11.88;;;4.75;;
66179;SDS011;52986;44.028;20.466;2023-05-07T02:15:47;11.85;;;4.88;;
66179;SDS011;52986;44.028;20.466;2023-05-07T02:18:15;10.98;;;4.68;;
66179;SDS011;52986;44.028;20.466;2023-05-07T02:20:41;10.13;;;4.82;;
66179;SDS011;52986;44.028;20.466;2023-05-07T02:23:06;11.65;;;4.70;;
66179;SDS011;52986;44.028;20.466;2023-05-07T02:25:32;10.98;;;4.90;;
66179;SDS011;52986;44.028;20.466;2023-05-07T02:27:57;10.20;;;4.53;;
66179;SDS011;52986;44.028;20.466;2023-05-07T02:30:22;10.20;;;4.45;;
66179;SDS011;52986;44.028;20.466;2023-05-07T02:32:48;10.80;;;4.82;;
66179;SDS011;52986;44.028;20.466;2023-05-07T02:35:14;10.23;;;4.35;;
66179;SDS011;52986;44.028;20.466;2023-05-07T02:37:39;11.35;;;4.18;;
66179;SDS011;52986;44.028;20.466;2023-05-07T02:40:05;10.57;;;4.70;;
66179;SDS011;52986;44.028;20.466;2023-05-07T02:42:30;10.52;;;4.40;;
66179;SDS011;52986;44.028;20.466;2023-05-07T02:44:56;10.70;;;4.53;;
66179;SDS011;52986;44.028;20.466;2023-05-07T02:47:21;10.45;;;4.10;;
66179;SDS011;52986;44.028;20.466;2023-05-07T02:49:47;11.57;;;4.93;;
66179;SDS011;52986;44.028;20.466;2023-05-07T02:52:12;11.43;;;4.45;;
66179;SDS011;52986;44.028;20.466;2023-05-07T02:54:38;12.32;;;4.60;;
66179;SDS011;52986;44.028;20.466;2023-05-07T02:57:03;11.50;;;4.32;;
66179;SDS011;52986;44.028;20.466;2023-05-07T02:59:29;11.07;;;4.63;;
66179;SDS011;52986;44.028;20.466;2023-05-07T03:01:54;11.13;;;4.45;;
66179;SDS011;52986;44.028;20.466;2023-05-07T03:04:19;12.70;;;4.97;;
66179;SDS011;52986;44.028;20.466;2023-05-07T03:06:45;11.93;;;4.70;;
66179;SDS011;52986;44.028;20.466;2023-05-07T03:09:10;11.38;;;4.82;;
66179;SDS011;52986;44.028;20.466;2023-05-07T03:11:36;11.80;;;4.32;;
66179;SDS011;52986;44.028;20.466;2023-05-07T03:14:01;12.45;;;4.68;;
66179;SDS011;52986;44.028;20.466;2023-05-07T03:16:27;13.95;;;5.22;;
66179;SDS011;52986;44.028;20.466;2023-05-07T03:18:52;12.07;;;4.93;;
66179;SDS011;52986;44.028;20.466;2023-05-07T03:21:18;11.73;;;4.82;;
66179;SDS011;52986;44.028;20.466;2023-05-07T03:23:43;12.95;;;4.88;;
66179;SDS011;52986;44.028;20.466;2023-05-07T03:26:09;12.13;;;5.38;;
66179;SDS011;52986;44.028;20.466;2023-05-07T03:28:34;11.93;;;4.68;;
66179;SDS011;52986;44.028;20.466;2023-05-07T03:31:00;10.57;;;4.45;;
66179;SDS011;52986;44.028;20.466;2023-05-07T03:33:25;10.98;;;4.60;;
66179;SDS011;52986;44.028;20.466;2023-05-07T03:35:52;12.13;;;4.70;;
66179;SDS011;52986;44.028;20.466;2023-05-07T03:38:17;11.20;;;4.82;;
66179;SDS011;52986;44.028;20.466;2023-05-07T03:40:43;12.00;;;4.65;;
66179;SDS011;52986;44.028;20.466;2023-05-07T03:43:08;15.40;;;4.65;;
66179;SDS011;52986;44.028;20.466;2023-05-07T03:45:34;10.68;;;4.72;;
66179;SDS011;52986;44.028;20.466;2023-05-07T03:47:59;11.15;;;4.90;;
66179;SDS011;52986;44.028;20.466;2023-05-07T03:50:24;12.05;;;4.47;;
66179;SDS011;52986;44.028;20.466;2023-05-07T03:52:50;9.93;;;4.28;;
66179;SDS011;52986;44.028;20.466;2023-05-07T03:55:15;12.13;;;4.85;;
66179;SDS011;52986;44.028;20.466;2023-05-07T03:57:40;11.10;;;4.60;;
66179;SDS011;52986;44.028;20.466;2023-05-07T04:00:06;14.90;;;4.67;;
66179;SDS011;52986;44.028;20.466;2023-05-07T04:02:32;10.43;;;4.60;;
66179;SDS011;52986;44.028;20.466;2023-05-07T04:04:58;12.02;;;4.30;;
66179;SDS011;52986;44.028;20.466;2023-05-07T04:07:23;12.10;;;4.60;;
66179;SDS011;52986;44.028;20.466;2023-05-07T04:09:49;10.32;;;4.15;;
66179;SDS011;52986;44.028;20.466;2023-05-07T04:12:14;10.85;;;4.75;;
66179;SDS011;52986;44.028;20.466;2023-05-07T04:14:40;12.18;;;5.18;;
66179;SDS011;52986;44.028;20.466;2023-05-07T04:17:05;14.20;;;4.85;;
66179;SDS011;52986;44.028;20.466;2023-05-07T04:19:33;14.45;;;5.35;;
66179;SDS011;52986;44.028;20.466;2023-05-07T04:21:58;13.45;;;5.68;;
66179;SDS011;52986;44.028;20.466;2023-05-07T04:24:24;13.70;;;5.78;;
66179;SDS011;52986;44.028;20.466;2023-05-07T04:26:49;15.10;;;6.00;;
66179;SDS011;52986;44.028;20.466;2023-05-07T04:29:16;13.63;;;5.82;;
66179;SDS011;52986;44.028;20.466;2023-05-07T04:31:44;14.52;;;5.72;;
66179;SDS011;52986;44.028;20.466;2023-05-07T04:34:11;11.27;;;4.90;;
66179;SDS011;52986;44.028;20.466;2023-05-07T04:36:37;13.23;;;4.78;;
66179;SDS011;52986;44.028;20.466;2023-05-07T04:39:03;12.25;;;4.97;;
66179;SDS011;52986;44.028;20.466;2023-05-07T04:41:29;14.05;;;5.25;;
66179;SDS011;52986;44.028;20.466;2023-05-07T04:43:54;11.90;;;5.40;;
66179;SDS011;52986;44.028;20.466;2023-05-07T04:46:20;12.52;;;5.57;;
66179;SDS011;52986;44.028;20.466;2023-05-07T04:48:45;14.02;;;4.97;;
66179;SDS011;52986;44.028;20.466;2023-05-07T04:51:11;12.70;;;4.68;;
66179;SDS011;52986;44.028;20.466;2023-05-07T04:53:37;12.52;;;5.32;;
66179;SDS011;52986;44.028;20.466;2023-05-07T04:56:02;11.90;;;5.47;;
66179;SDS011;52986;44.028;20.466;2023-05-07T04:58:28;11.52;;;5.32;;
66179;SDS011;52986;44.028;20.466;2023-05-07T05:00:56;12.05;;;4.95;;
66179;SDS011;52986;44.028;20.466;2023-05-07T05:03:22;15.15;;;5.75;;
66179;SDS011;52986;44.028;20.466;2023-05-07T05:05:51;12.43;;;5.32;;
66179;SDS011;52986;44.028;20.466;2023-05-07T05:08:17;13.10;;;5.60;;
66179;SDS011;52986;44.028;20.466;2023-05-07T05:10:43;12.25;;;5.40;;
66179;SDS011;52986;44.028;20.466;2023-05-07T05:13:09;12.48;;;5.10;;
66179;SDS011;52986;44.028;20.466;2023-05-07T05:15:34;12.35;;;5.75;;
66179;SDS011;52986;44.028;20.466;2023-05-07T05:18:00;14.05;;;6.55;;
66179;SDS011;52986;44.028;20.466;2023-05-07T05:20:26;10.70;;;5.22;;
66179;SDS011;52986;44.028;20.466;2023-05-07T05:22:51;12.82;;;5.90;;
66179;SDS011;52986;44.028;20.466;2023-05-07T05:25:17;12.80;;;5.55;;
66179;SDS011;52986;44.028;20.466;2023-05-07T05:27:42;11.93;;;5.10;;
66179;SDS011;52986;44.028;20.466;2023-05-07T05:30:07;12.40;;;5.10;;
66179;SDS011;52986;44.028;20.466;2023-05-07T05:32:33;12.70;;;5.28;;
66179;SDS011;52986;44.028;20.466;2023-05-07T05:34:59;13.27;;;5.10;;
66179;SDS011;52986;44.028;20.466;2023-05-07T05:37:24;10.73;;;4.95;;
66179;SDS011;52986;44.028;20.466;2023-05-07T05:39:50;10.95;;;5.13;;
66179;SDS011;52986;44.028;20.466;2023-05-07T05:42:15;10.32;;;4.78;;
66179;SDS011;52986;44.028;20.466;2023-05-07T05:44:41;12.23;;;5.25;;
66179;SDS011;52986;44.028;20.466;2023-05-07T05:47:06;11.55;;;5.53;;
66179;SDS011;52986;44.028;20.466;2023-05-07T05:49:32;11.48;;;5.43;;
66179;SDS011;52986;44.028;20.466;2023-05-07T05:51:57;10.75;;;5.38;;
66179;SDS011;52986;44.028;20.466;2023-05-07T05:54:22;12.05;;;5.35;;
66179;SDS011;52986;44.028;20.466;2023-05-07T05:56:48;11.73;;;5.40;;
66179;SDS011;52986;44.028;20.466;2023-05-07T05:59:14;12.18;;;5.60;;
66179;SDS011;52986;44.028;20.466;2023-05-07T06:01:39;12.85;;;5.93;;
66179;SDS011;52986;44.028;20.466;2023-05-07T06:04:05;12.88;;;5.80;;
66179;SDS011;52986;44.028;20.466;2023-05-07T06:06:30;11.18;;;5.63;;
66179;SDS011;52986;44.028;20.466;2023-05-07T06:08:57;13.48;;;5.32;;
66179;SDS011;52986;44.028;20.466;2023-05-07T06:11:22;12.63;;;5.07;;
66179;SDS011;52986;44.028;20.466;2023-05-07T06:13:48;12.45;;;5.03;;
66179;SDS011;52986;44.028;20.466;2023-05-07T06:16:13;11.75;;;4.95;;
66179;SDS011;52986;44.028;20.466;2023-05-07T06:18:40;10.80;;;5.03;;
66179;SDS011;52986;44.028;20.466;2023-05-07T06:21:05;11.32;;;5.10;;
66179;SDS011;52986;44.028;20.466;2023-05-07T06:23:30;11.50;;;4.93;;
66179;SDS011;52986;44.028;20.466;2023-05-07T06:25:56;9.50;;;4.80;;
66179;SDS011;52986;44.028;20.466;2023-05-07T06:28:21;8.90;;;4.22;;
66179;SDS011;52986;44.028;20.466;2023-05-07T06:30:47;10.57;;;4.93;;
66179;SDS011;52986;44.028;20.466;2023-05-07T06:33:14;11.13;;;4.75;;
66179;SDS011;52986;44.028;20.466;2023-05-07T06:35:40;8.77;;;4.45;;
66179;SDS011;52986;44.028;20.466;2023-05-07T06:38:05;10.25;;;4.50;;
66179;SDS011;52986;44.028;20.466;2023-05-07T06:40:31;9.77;;;4.20;;
66179;SDS011;52986;44.028;20.466;2023-05-07T06:42:56;12.52;;;5.00;;
66179;SDS011;52986;44.028;20.466;2023-05-07T06:45:21;12.38;;;4.53;;
66179;SDS011;52986;44.028;20.466;2023-05-07T06:47:47;10.80;;;4.35;;
66179;SDS011;52986;44.028;20.466;2023-05-07T06:50:12;9.13;;;4.60;;
66179;SDS011;52986;44.028;20.466;2023-05-07T06:52:38;10.13;;;4.57;;
66179;SDS011;52986;44.028;20.466;2023-05-07T06:55:03;11.45;;;4.75;;
66179;SDS011;52986;44.028;20.466;2023-05-07T06:57:29;11.05;;;4.22;;
66179;SDS011;52986;44.028;20.466;2023-05-07T06:59:54;9.95;;;4.30;;
66179;SDS011;52986;44.028;20.466;2023-05-07T07:02:20;9.18;;;3.85;;
66179;SDS011;52986;44.028;20.466;2023-05-07T07:04:45;8.35;;;4.15;;
66179;SDS011;52986;44.028;20.466;2023-05-07T07:07:10;10.77;;;4.13;;
66179;SDS011;52986;44.028;20.466;2023-05-07T07:09:36;8.23;;;3.70;;
66179;SDS011;52986;44.028;20.466;2023-05-07T07:12:01;9.43;;;3.92;;
66179;SDS011;52986;44.028;20.466;2023-05-07T07:14:27;9.45;;;3.67;;
66179;SDS011;52986;44.028;20.466;2023-05-07T07:16:52;7.80;;;3.47;;
66179;SDS011;52986;44.028;20.466;2023-05-07T07:19:17;8.50;;;3.63;;
66179;SDS011;52986;44.028;20.466;2023-05-07T07:21:45;9.23;;;3.40;;
66179;SDS011;52986;44.028;20.466;2023-05-07T07:24:10;7.80;;;3.60;;
66179;SDS011;52986;44.028;20.466;2023-05-07T07:26:35;7.85;;;3.10;;
66179;SDS011;52986;44.028;20.466;2023-05-07T07:29:01;10.65;;;3.75;;
66179;SDS011;52986;44.028;20.466;2023-05-07T07:31:26;7.72;;;3.20;;
66179;SDS011;52986;44.028;20.466;2023-05-07T07:33:52;8.90;;;3.30;;
66179;SDS011;52986;44.028;20.466;2023-05-07T07:36:17;6.78;;;3.22;;
66179;SDS011;52986;44.028;20.466;2023-05-07T07:38:42;7.70;;;3.22;;
66179;SDS011;52986;44.028;20.466;2023-05-07T07:41:08;6.50;;;3.13;;
66179;SDS011;52986;44.028;20.466;2023-05-07T07:43:34;7.07;;;3.20;;
66179;SDS011;52986;44.028;20.466;2023-05-07T07:46:00;6.38;;;3.13;;
66179;SDS011;52986;44.028;20.466;2023-05-07T07:48:26;7.57;;;3.42;;
66179;SDS011;52986;44.028;20.466;2023-05-07T07:50:51;7.80;;;3.28;;
66179;SDS011;52986;44.028;20.466;2023-05-07T07:53:16;7.22;;;3.30;;
66179;SDS011;52986;44.028;20.466;2023-05-07T07:55:42;7.57;;;3.38;;
66179;SDS011;52986;44.028;20.466;2023-05-07T07:58:07;8.07;;;3.28;;
66179;SDS011;52986;44.028;20.466;2023-05-07T08:00:33;7.25;;;3.50;;
66179;SDS011;52986;44.028;20.466;2023-05-07T08:02:58;6.95;;;3.20;;
66179;SDS011;52986;44.028;20.466;2023-05-07T08:05:24;7.65;;;3.70;;
66179;SDS011;52986;44.028;20.466;2023-05-07T08:07:50;7.32;;;3.20;;
66179;SDS011;52986;44.028;20.466;2023-05-07T08:10:17;35.35;;;4.43;;
66179;SDS011;52986;44.028;20.466;2023-05-07T08:12:46;8.40;;;3.35;;
66179;SDS011;52986;44.028;20.466;2023-05-07T08:15:15;8.30;;;3.50;;
66179;SDS011;52986;44.028;20.466;2023-05-07T08:17:41;8.18;;;3.10;;
66179;SDS011;52986;44.028;20.466;2023-05-07T08:20:06;8.35;;;3.13;;
66179;SDS011;52986;44.028;20.466;2023-05-07T08:22:32;9.55;;;3.60;;
66179;SDS011;52986;44.028;20.466;2023-05-07T08:24:59;7.15;;;3.22;;
66179;SDS011;52986;44.028;20.466;2023-05-07T08:27:25;6.78;;;3.38;;
66179;SDS011;52986;44.028;20.466;2023-05-07T08:29:50;7.97;;;3.70;;
66179;SDS011;52986;44.028;20.466;2023-05-07T08:32:15;7.60;;;3.35;;
66179;SDS011;52986;44.028;20.466;2023-05-07T08:34:41;6.03;;;3.00;;
66179;SDS011;52986;44.028;20.466;2023-05-07T08:37:06;7.72;;;3.50;;
66179;SDS011;52986;44.028;20.466;2023-05-07T08:39:32;9.07;;;3.22;;
66179;SDS011;52986;44.028;20.466;2023-05-07T08:41:57;7.82;;;3.05;;
66179;SDS011;52986;44.028;20.466;2023-05-07T08:44:27;7.25;;;3.20;;
66179;SDS011;52986;44.028;20.466;2023-05-07T08:46:56;7.47;;;3.83;;
66179;SDS011;52986;44.028;20.466;2023-05-07T08:49:21;7.47;;;3.75;;
66179;SDS011;52986;44.028;20.466;2023-05-07T08:51:47;6.70;;;3.22;;
66179;SDS011;52986;44.028;20.466;2023-05-07T08:54:15;6.95;;;2.92;;
66179;SDS011;52986;44.028;20.466;2023-05-07T08:56:41;6.85;;;3.03;;
66179;SDS011;52986;44.028;20.466;2023-05-07T08:59:06;6.90;;;3.30;;
66179;SDS011;52986;44.028;20.466;2023-05-07T09:01:32;6.38;;;3.10;;
66179;SDS011;52986;44.028;20.466;2023-05-07T09:04:00;8.70;;;3.05;;
66179;SDS011;52986;44.028;20.466;2023-05-07T09:06:25;6.20;;;3.05;;
66179;SDS011;52986;44.028;20.466;2023-05-07T09:08:52;7.25;;;3.00;;
66179;SDS011;52986;44.028;20.466;2023-05-07T09:11:22;6.38;;;2.95;;
66179;SDS011;52986;44.028;20.466;2023-05-07T09:13:48;7.25;;;3.00;;
66179;SDS011;52986;44.028;20.466;2023-05-07T09:16:17;9.32;;;3.35;;
66179;SDS011;52986;44.028;20.466;2023-05-07T09:18:46;9.63;;;2.92;;
66179;SDS011;52986;44.028;20.466;2023-05-07T09:21:15;8.15;;;3.05;;
66179;SDS011;52986;44.028;20.466;2023-05-07T09:23:42;8.80;;;3.15;;
66179;SDS011;52986;44.028;20.466;2023-05-07T09:26:08;7.70;;;3.15;;
66179;SDS011;52986;44.028;20.466;2023-05-07T09:28:43;7.25;;;2.92;;
66179;SDS011;52986;44.028;20.466;2023-05-07T09:31:09;10.25;;;2.90;;
66179;SDS011;52986;44.028;20.466;2023-05-07T09:33:35;6.05;;;3.00;;
66179;SDS011;52986;44.028;20.466;2023-05-07T09:36:07;6.88;;;3.22;;
66179;SDS011;52986;44.028;20.466;2023-05-07T09:38:34;7.50;;;2.97;;
66179;SDS011;52986;44.028;20.466;2023-05-07T09:43:37;6.10;;;2.83;;
66179;SDS011;52986;44.028;20.466;2023-05-07T09:46:07;9.23;;;3.20;;
66179;SDS011;52986;44.028;20.466;2023-05-07T09:48:37;5.90;;;2.83;;
66179;SDS011;52986;44.028;20.466;2023-05-07T09:51:06;7.75;;;3.10;;
66179;SDS011;52986;44.028;20.466;2023-05-07T09:53:46;7.88;;;2.80;;
66179;SDS011;52986;44.028;20.466;2023-05-07T09:56:13;6.80;;;2.83;;
66179;SDS011;52986;44.028;20.466;2023-05-07T09:58:40;6.80;;;2.85;;
66179;SDS011;52986;44.028;20.466;2023-05-07T10:01:06;5.82;;;2.72;;
66179;SDS011;52986;44.028;20.466;2023-05-07T10:03:32;5.03;;;2.60;;
66179;SDS011;52986;44.028;20.466;2023-05-07T10:05:59;5.55;;;2.60;;
66179;SDS011;52986;44.028;20.466;2023-05-07T10:08:26;5.55;;;3.00;;
66179;SDS011;52986;44.028;20.466;2023-05-07T10:10:52;7.25;;;2.80;;
66179;SDS011;52986;44.028;20.466;2023-05-07T10:13:19;6.27;;;2.97;;
66179;SDS011;52986;44.028;20.466;2023-05-07T10:15:44;5.03;;;2.75;;
66179;SDS011;52986;44.028;20.466;2023-05-07T10:18:10;6.63;;;3.00;;
66179;SDS011;52986;44.028;20.466;2023-05-07T10:20:37;6.80;;;2.90;;
66179;SDS011;52986;44.028;20.466;2023-05-07T10:23:04;6.28;;;2.90;;
66179;SDS011;52986;44.028;20.466;2023-05-07T10:25:31;6.40;;;2.80;;
66179;SDS011;52986;44.028;20.466;2023-05-07T10:27:59;4.90;;;2.90;;
66179;SDS011;52986;44.028;20.466;2023-05-07T10:33:22;5.65;;;2.85;;
66179;SDS011;52986;44.028;20.466;2023-05-07T10:35:50;5.40;;;2.88;;
66179;SDS011;52986;44.028;20.466;2023-05-07T10:38:16;6.38;;;2.70;;
66179;SDS011;52986;44.028;20.466;2023-05-07T10:40:42;7.78;;;3.22;;
66179;SDS011;52986;44.028;20.466;2023-05-07T10:43:08;5.82;;;3.03;;
66179;SDS011;52986;44.028;20.466;2023-05-07T10:45:33;6.47;;;3.00;;
66179;SDS011;52986;44.028;20.466;2023-05-07T10:50:41;5.93;;;2.72;;
66179;SDS011;52986;44.028;20.466;2023-05-07T10:55:42;6.25;;;3.30;;
66179;SDS011;52986;44.028;20.466;2023-05-07T11:00:46;8.70;;;3.20;;
66179;SDS011;52986;44.028;20.466;2023-05-07T11:03:12;7.43;;;3.10;;
66179;SDS011;52986;44.028;20.466;2023-05-07T11:05:37;5.93;;;2.90;;
66179;SDS011;52986;44.028;20.466;2023-05-07T11:08:04;5.68;;;2.90;;
66179;SDS011;52986;44.028;20.466;2023-05-07T11:13:15;7.47;;;3.28;;
66179;SDS011;52986;44.028;20.466;2023-05-07T11:15:42;6.25;;;2.90;;
66179;SDS011;52986;44.028;20.466;2023-05-07T11:18:10;6.10;;;2.90;;
66179;SDS011;52986;44.028;20.466;2023-05-07T11:20:52;8.13;;;2.97;;
66179;SDS011;52986;44.028;20.466;2023-05-07T11:26:04;8.00;;;3.00;;
66179;SDS011;52986;44.028;20.466;2023-05-07T11:28:31;5.85;;;2.70;;
66179;SDS011;52986;44.028;20.466;2023-05-07T11:31:01;6.38;;;2.70;;
66179;SDS011;52986;44.028;20.466;2023-05-07T11:33:27;8.98;;;2.70;;
66179;SDS011;52986;44.028;20.466;2023-05-07T11:35:54;5.10;;;2.53;;
66179;SDS011;52986;44.028;20.466;2023-05-07T11:38:19;6.82;;;2.90;;
66179;SDS011;52986;44.028;20.466;2023-05-07T11:40:48;5.95;;;2.70;;
66179;SDS011;52986;44.028;20.466;2023-05-07T11:43:15;6.35;;;2.78;;
66179;SDS011;52986;44.028;20.466;2023-05-07T11:45:40;5.70;;;2.47;;
66179;SDS011;52986;44.028;20.466;2023-05-07T11:48:05;7.47;;;2.75;;
66179;SDS011;52986;44.028;20.466;2023-05-07T11:50:31;5.88;;;2.70;;
66179;SDS011;52986;44.028;20.466;2023-05-07T11:52:57;5.35;;;2.45;;
66179;SDS011;52986;44.028;20.466;2023-05-07T11:55:23;4.97;;;2.40;;
66179;SDS011;52986;44.028;20.466;2023-05-07T11:57:50;5.28;;;2.50;;
66179;SDS011;52986;44.028;20.466;2023-05-07T12:00:15;5.68;;;2.50;;
66179;SDS011;52986;44.028;20.466;2023-05-07T12:02:41;6.35;;;2.40;;
66179;SDS011;52986;44.028;20.466;2023-05-07T12:05:07;5.57;;;2.70;;
66179;SDS011;52986;44.028;20.466;2023-05-07T12:07:41;6.97;;;2.58;;
66179;SDS011;52986;44.028;20.466;2023-05-07T12:10:07;8.23;;;2.72;;
66179;SDS011;52986;44.028;20.466;2023-05-07T12:12:39;6.28;;;2.60;;
66179;SDS011;52986;44.028;20.466;2023-05-07T12:15:06;6.00;;;2.60;;
66179;SDS011;52986;44.028;20.466;2023-05-07T12:17:32;4.80;;;2.60;;
66179;SDS011;52986;44.028;20.466;2023-05-07T12:19:58;6.10;;;2.75;;
66179;SDS011;52986;44.028;20.466;2023-05-07T12:22:23;10.18;;;3.28;;
66179;SDS011;52986;44.028;20.466;2023-05-07T12:24:58;6.07;;;2.70;;
66179;SDS011;52986;44.028;20.466;2023-05-07T12:27:25;6.63;;;2.80;;
66179;SDS011;52986;44.028;20.466;2023-05-07T12:29:51;7.20;;;2.80;;
66179;SDS011;52986;44.028;20.466;2023-05-07T12:32:17;8.30;;;2.95;;
66179;SDS011;52986;44.028;20.466;2023-05-07T12:34:43;7.50;;;3.17;;
66179;SDS011;52986;44.028;20.466;2023-05-07T12:37:09;8.20;;;3.20;;
66179;SDS011;52986;44.028;20.466;2023-05-07T12:39:35;5.60;;;2.53;;
66179;SDS011;52986;44.028;20.466;2023-05-07T12:42:00;8.40;;;2.75;;
66179;SDS011;52986;44.028;20.466;2023-05-07T12:44:29;7.97;;;2.88;;
66179;SDS011;52986;44.028;20.466;2023-05-07T12:46:56;8.23;;;2.85;;
66179;SDS011;52986;44.028;20.466;2023-05-07T12:49:22;7.18;;;2.88;;
66179;SDS011;52986;44.028;20.466;2023-05-07T12:51:48;7.20;;;3.22;;
66179;SDS011;52986;44.028;20.466;2023-05-07T12:54:33;7.70;;;3.13;;
66179;SDS011;52986;44.028;20.466;2023-05-07T12:57:02;6.53;;;3.10;;
66179;SDS011;52986;44.028;20.466;2023-05-07T12:59:31;6.45;;;2.85;;
66179;SDS011;52986;44.028;20.466;2023-05-07T13:02:00;5.50;;;2.63;;
66179;SDS011;52986;44.028;20.466;2023-05-07T13:04:25;6.15;;;2.33;;
66179;SDS011;52986;44.028;20.466;2023-05-07T13:06:51;5.60;;;2.40;;
66179;SDS011;52986;44.028;20.466;2023-05-07T13:09:16;5.18;;;2.28;;
66179;SDS011;52986;44.028;20.466;2023-05-07T13:11:41;5.05;;;2.22;;
66179;SDS011;52986;44.028;20.466;2023-05-07T13:14:07;6.00;;;2.20;;
66179;SDS011;52986;44.028;20.466;2023-05-07T13:16:33;4.90;;;2.25;;
66179;SDS011;52986;44.028;20.466;2023-05-07T13:18:58;6.45;;;2.35;;
66179;SDS011;52986;44.028;20.466;2023-05-07T13:21:23;4.90;;;2.05;;
66179;SDS011;52986;44.028;20.466;2023-05-07T13:23:49;7.05;;;2.40;;
66179;SDS011;52986;44.028;20.466;2023-05-07T13:26:14;5.53;;;2.47;;
66179;SDS011;52986;44.028;20.466;2023-05-07T13:28:40;4.75;;;2.10;;
66179;SDS011;52986;44.028;20.466;2023-05-07T13:31:05;6.78;;;2.40;;
66179;SDS011;52986;44.028;20.466;2023-05-07T13:33:31;7.95;;;2.38;;
66179;SDS011;52986;44.028;20.466;2023-05-07T13:35:56;8.80;;;2.40;;
66179;SDS011;52986;44.028;20.466;2023-05-07T13:38:22;4.47;;;2.03;;
66179;SDS011;52986;44.028;20.466;2023-05-07T13:40:47;7.20;;;2.47;;
66179;SDS011;52986;44.028;20.466;2023-05-07T13:43:13;5.47;;;2.10;;
66179;SDS011;52986;44.028;20.466;2023-05-07T13:45:39;6.20;;;2.28;;
66179;SDS011;52986;44.028;20.466;2023-05-07T13:48:05;6.60;;;2.10;;
66179;SDS011;52986;44.028;20.466;2023-05-07T13:50:30;4.90;;;2.25;;
66179;SDS011;52986;44.028;20.466;2023-05-07T13:52:56;4.80;;;2.30;;
66179;SDS011;52986;44.028;20.466;2023-05-07T13:55:22;5.30;;;2.30;;
66179;SDS011;52986;44.028;20.466;2023-05-07T13:57:54;6.13;;;2.28;;
66179;SDS011;52986;44.028;20.466;2023-05-07T14:00:24;7.43;;;2.35;;
66179;SDS011;52986;44.028;20.466;2023-05-07T14:02:50;5.53;;;2.30;;
66179;SDS011;52986;44.028;20.466;2023-05-07T14:05:15;5.68;;;2.28;;
66179;SDS011;52986;44.028;20.466;2023-05-07T14:07:41;5.47;;;2.10;;
66179;SDS011;52986;44.028;20.466;2023-05-07T14:10:06;6.25;;;2.00;;
66179;SDS011;52986;44.028;20.466;2023-05-07T14:12:32;5.32;;;2.30;;
66179;SDS011;52986;44.028;20.466;2023-05-07T14:14:58;5.50;;;2.40;;
66179;SDS011;52986;44.028;20.466;2023-05-07T14:17:23;5.50;;;2.28;;
66179;SDS011;52986;44.028;20.466;2023-05-07T14:19:51;7.10;;;2.53;;
66179;SDS011;52986;44.028;20.466;2023-05-07T14:22:18;6.80;;;2.47;;
66179;SDS011;52986;44.028;20.466;2023-05-07T14:24:45;6.28;;;2.95;;
66179;SDS011;52986;44.028;20.466;2023-05-07T14:27:10;6.82;;;2.25;;
66179;SDS011;52986;44.028;20.466;2023-05-07T14:29:36;5.13;;;2.22;;
66179;SDS011;52986;44.028;20.466;2023-05-07T14:32:01;5.50;;;2.40;;
66179;SDS011;52986;44.028;20.466;2023-05-07T14:34:28;5.13;;;2.30;;
66179;SDS011;52986;44.028;20.466;2023-05-07T14:36:53;5.57;;;2.28;;
66179;SDS011;52986;44.028;20.466;2023-05-07T14:39:19;7.05;;;2.33;;
66179;SDS011;52986;44.028;20.466;2023-05-07T14:41:44;5.88;;;2.08;;